sensor_id;sensor_type;location;lat;lon;timestamp;temperature;humidity
25640;DHT22;13497;48.322;16.204;2023-04-15T00:02:15;5.70;99.90
25640;DHT22;13497;48.322;16.204;2023-04-15T00:04:44;5.80;99.90
25640;DHT22;13497;48.322;16.204;2023-04-15T00:07:10;5.80;99.90
25640;DHT22;13497;48.322;16.204;2023-04-15T00:09:36;5.80;99.90
25640;DHT22;13497;48.322;16.204;2023-04-15T00:12:01;5.80;99.90
25640;DHT22;13497;48.322;16.204;2023-04-15T00:14:28;5.70;99.90
25640;DHT22;13497;48.322;16.204;2023-04-15T00:16:53;5.80;99.90
25640;DHT22;13497;48.322;16.204;2023-04-15T00:19:22;5.70;99.90
25640;DHT22;13497;48.322;16.204;2023-04-15T00:21:48;5.60;99.90
25640;DHT22;13497;48.322;16.204;2023-04-15T00:24:14;5.60;99.90
25640;DHT22;13497;48.322;16.204;2023-04-15T00:26:40;5.60;99.90
25640;DHT22;13497;48.322;16.204;2023-04-15T00:29:05;5.60;99.90
25640;DHT22;13497;48.322;16.204;2023-04-15T00:31:31;5.50;99.90
25640;DHT22;13497;48.322;16.204;2023-04-15T00:33:57;5.50;99.90
25640;DHT22;13497;48.322;16.204;2023-04-15T00:36:23;5.50;99.90
25640;DHT22;13497;48.322;16.204;2023-04-15T00:38:48;5.50;99.90
25640;DHT22;13497;48.322;16.204;2023-04-15T00:41:14;5.40;99.90
25640;DHT22;13497;48.322;16.204;2023-04-15T00:43:41;5.50;99.90
25640;DHT22;13497;48.322;16.204;2023-04-15T00:46:08;5.50;99.90
25640;DHT22;13497;48.322;16.204;2023-04-15T00:48:34;5.50;99.90
25640;DHT22;13497;48.322;16.204;2023-04-15T00:51:00;5.60;99.90
25640;DHT22;13497;48.322;16.204;2023-04-15T00:53:26;5.60;99.90
25640;DHT22;13497;48.322;16.204;2023-04-15T00:55:53;5.60;99.90
25640;DHT22;13497;48.322;16.204;2023-04-15T00:58:18;5.60;99.90
25640;DHT22;13497;48.322;16.204;2023-04-15T01:00:44;5.60;99.90
25640;DHT22;13497;48.322;16.204;2023-04-15T01:03:11;5.60;99.90
25640;DHT22;13497;48.322;16.204;2023-04-15T01:05:37;5.60;99.90
25640;DHT22;13497;48.322;16.204;2023-04-15T01:08:04;5.60;99.90
25640;DHT22;13497;48.322;16.204;2023-04-15T01:10:30;5.70;99.90
25640;DHT22;13497;48.322;16.204;2023-04-15T01:12:56;5.70;99.90
25640;DHT22;13497;48.322;16.204;2023-04-15T01:15:23;5.70;99.90
25640;DHT22;13497;48.322;16.204;2023-04-15T01:17:49;5.70;99.90
25640;DHT22;13497;48.322;16.204;2023-04-15T01:20:15;5.70;99.90
25640;DHT22;13497;48.322;16.204;2023-04-15T01:22:41;5.70;99.90
25640;DHT22;13497;48.322;16.204;2023-04-15T01:25:17;5.70;99.90
25640;DHT22;13497;48.322;16.204;2023-04-15T01:27:44;5.80;99.90
25640;DHT22;13497;48.322;16.204;2023-04-15T01:30:10;5.80;99.90
25640;DHT22;13497;48.322;16.204;2023-04-15T01:32:36;5.80;99.90
25640;DHT22;13497;48.322;16.204;2023-04-15T01:35:02;5.90;99.90
25640;DHT22;13497;48.322;16.204;2023-04-15T01:37:28;5.90;99.90
25640;DHT22;13497;48.322;16.204;2023-04-15T01:39:53;5.90;99.90
25640;DHT22;13497;48.322;16.204;2023-04-15T01:42:20;6.00;99.90
25640;DHT22;13497;48.322;16.204;2023-04-15T01:44:46;6.00;99.90
25640;DHT22;13497;48.322;16.204;2023-04-15T01:47:12;6.00;99.90
25640;DHT22;13497;48.322;16.204;2023-04-15T01:49:38;6.00;99.90
25640;DHT22;13497;48.322;16.204;2023-04-15T01:52:04;6.00;99.90
25640;DHT22;13497;48.322;16.204;2023-04-15T01:54:30;6.10;99.90
25640;DHT22;13497;48.322;16.204;2023-04-15T01:56:55;6.10;99.90
25640;DHT22;13497;48.322;16.204;2023-04-15T01:59:21;6.00;99.90
25640;DHT22;13497;48.322;16.204;2023-04-15T02:01:48;6.00;99.90
25640;DHT22;13497;48.322;16.204;2023-04-15T02:04:14;6.00;99.90
25640;DHT22;13497;48.322;16.204;2023-04-15T02:06:43;6.00;99.90
25640;DHT22;13497;48.322;16.204;2023-04-15T02:09:09;6.00;99.90
25640;DHT22;13497;48.322;16.204;2023-04-15T02:11:35;6.00;99.90
25640;DHT22;13497;48.322;16.204;2023-04-15T02:14:04;6.00;99.90
25640;DHT22;13497;48.322;16.204;2023-04-15T02:16:31;6.10;99.90
25640;DHT22;13497;48.322;16.204;2023-04-15T02:18:57;6.10;99.90
25640;DHT22;13497;48.322;16.204;2023-04-15T02:21:22;6.00;99.90
25640;DHT22;13497;48.322;16.204;2023-04-15T02:23:48;6.00;99.90
25640;DHT22;13497;48.322;16.204;2023-04-15T02:26:14;6.00;99.90
25640;DHT22;13497;48.322;16.204;2023-04-15T02:28:40;6.00;99.90
25640;DHT22;13497;48.322;16.204;2023-04-15T02:31:06;6.10;99.90
25640;DHT22;13497;48.322;16.204;2023-04-15T02:33:32;6.10;99.90
25640;DHT22;13497;48.322;16.204;2023-04-15T02:35:58;6.10;99.90
25640;DHT22;13497;48.322;16.204;2023-04-15T02:38:24;6.00;99.90
25640;DHT22;13497;48.322;16.204;2023-04-15T02:40:50;6.00;99.90
25640;DHT22;13497;48.322;16.204;2023-04-15T02:43:16;6.00;99.90
25640;DHT22;13497;48.322;16.204;2023-04-15T02:45:42;6.00;99.90
25640;DHT22;13497;48.322;16.204;2023-04-15T02:48:08;6.00;99.90
25640;DHT22;13497;48.322;16.204;2023-04-15T02:50:34;6.00;99.90
25640;DHT22;13497;48.322;16.204;2023-04-15T02:53:00;5.90;99.90
25640;DHT22;13497;48.322;16.204;2023-04-15T02:55:27;5.80;99.90
25640;DHT22;13497;48.322;16.204;2023-04-15T02:57:53;5.80;99.90
25640;DHT22;13497;48.322;16.204;2023-04-15T03:00:22;5.80;99.90
25640;DHT22;13497;48.322;16.204;2023-04-15T03:02:49;5.70;99.90
25640;DHT22;13497;48.322;16.204;2023-04-15T03:05:21;5.70;99.90
25640;DHT22;13497;48.322;16.204;2023-04-15T03:07:50;5.70;99.90
25640;DHT22;13497;48.322;16.204;2023-04-15T03:10:16;5.80;99.90
25640;DHT22;13497;48.322;16.204;2023-04-15T03:12:41;5.70;99.90
25640;DHT22;13497;48.322;16.204;2023-04-15T03:15:08;5.70;99.90
25640;DHT22;13497;48.322;16.204;2023-04-15T03:17:34;5.60;99.90
25640;DHT22;13497;48.322;16.204;2023-04-15T03:20:04;5.70;99.90
25640;DHT22;13497;48.322;16.204;2023-04-15T03:22:31;5.70;99.90
25640;DHT22;13497;48.322;16.204;2023-04-15T03:24:56;5.70;99.90
25640;DHT22;13497;48.322;16.204;2023-04-15T03:27:23;5.60;99.90
25640;DHT22;13497;48.322;16.204;2023-04-15T03:29:49;5.50;99.90
25640;DHT22;13497;48.322;16.204;2023-04-15T03:32:14;5.60;99.90
25640;DHT22;13497;48.322;16.204;2023-04-15T03:34:41;5.60;99.90
25640;DHT22;13497;48.322;16.204;2023-04-15T03:37:06;5.60;99.90
25640;DHT22;13497;48.322;16.204;2023-04-15T03:39:33;5.80;99.90
25640;DHT22;13497;48.322;16.204;2023-04-15T03:41:58;5.70;99.90
25640;DHT22;13497;48.322;16.204;2023-04-15T03:44:27;5.70;99.90
25640;DHT22;13497;48.322;16.204;2023-04-15T03:46:53;5.60;99.90
25640;DHT22;13497;48.322;16.204;2023-04-15T03:49:19;5.70;99.90
25640;DHT22;13497;48.322;16.204;2023-04-15T03:51:45;5.60;99.90
25640;DHT22;13497;48.322;16.204;2023-04-15T03:54:11;5.60;99.90
25640;DHT22;13497;48.322;16.204;2023-04-15T03:56:38;5.50;99.90
25640;DHT22;13497;48.322;16.204;2023-04-15T03:59:04;5.40;99.90
25640;DHT22;13497;48.322;16.204;2023-04-15T04:01:30;5.20;99.90
25640;DHT22;13497;48.322;16.204;2023-04-15T04:03:56;5.10;99.90
25640;DHT22;13497;48.322;16.204;2023-04-15T04:06:21;5.00;99.90
25640;DHT22;13497;48.322;16.204;2023-04-15T04:08:47;5.00;99.90
25640;DHT22;13497;48.322;16.204;2023-04-15T04:11:12;4.90;99.90
25640;DHT22;13497;48.322;16.204;2023-04-15T04:13:38;5.00;99.90
25640;DHT22;13497;48.322;16.204;2023-04-15T04:16:05;4.90;99.90
25640;DHT22;13497;48.322;16.204;2023-04-15T04:18:33;4.80;99.90
25640;DHT22;13497;48.322;16.204;2023-04-15T04:20:59;4.80;99.90
25640;DHT22;13497;48.322;16.204;2023-04-15T04:23:25;4.70;99.90
25640;DHT22;13497;48.322;16.204;2023-04-15T04:25:51;4.60;99.90
25640;DHT22;13497;48.322;16.204;2023-04-15T04:28:17;4.60;99.90
25640;DHT22;13497;48.322;16.204;2023-04-15T04:30:43;4.60;99.90
25640;DHT22;13497;48.322;16.204;2023-04-15T04:33:09;4.50;99.90
25640;DHT22;13497;48.322;16.204;2023-04-15T04:35:35;4.50;99.90
25640;DHT22;13497;48.322;16.204;2023-04-15T04:38:02;4.50;99.90
25640;DHT22;13497;48.322;16.204;2023-04-15T04:40:28;4.40;99.90
25640;DHT22;13497;48.322;16.204;2023-04-15T04:42:54;4.40;99.90
25640;DHT22;13497;48.322;16.204;2023-04-15T04:45:19;4.40;99.90
25640;DHT22;13497;48.322;16.204;2023-04-15T04:47:45;4.40;99.90
25640;DHT22;13497;48.322;16.204;2023-04-15T04:50:12;4.40;99.90
25640;DHT22;13497;48.322;16.204;2023-04-15T04:52:37;4.40;99.90
25640;DHT22;13497;48.322;16.204;2023-04-15T04:55:03;4.40;99.90
25640;DHT22;13497;48.322;16.204;2023-04-15T04:57:29;4.40;99.90
25640;DHT22;13497;48.322;16.204;2023-04-15T04:59:55;4.40;99.90
25640;DHT22;13497;48.322;16.204;2023-04-15T05:02:21;4.40;99.90
25640;DHT22;13497;48.322;16.204;2023-04-15T05:04:46;4.40;99.90
25640;DHT22;13497;48.322;16.204;2023-04-15T05:07:12;4.50;99.90
25640;DHT22;13497;48.322;16.204;2023-04-15T05:09:37;4.50;99.90
25640;DHT22;13497;48.322;16.204;2023-04-15T05:12:03;4.60;99.90
25640;DHT22;13497;48.322;16.204;2023-04-15T05:14:29;4.80;99.90
25640;DHT22;13497;48.322;16.204;2023-04-15T05:16:56;4.80;99.90
25640;DHT22;13497;48.322;16.204;2023-04-15T05:19:22;4.90;99.90
25640;DHT22;13497;48.322;16.204;2023-04-15T05:21:47;5.00;99.90
25640;DHT22;13497;48.322;16.204;2023-04-15T05:24:13;5.10;99.90
25640;DHT22;13497;48.322;16.204;2023-04-15T05:26:39;5.00;99.90
25640;DHT22;13497;48.322;16.204;2023-04-15T05:29:04;4.90;99.90
25640;DHT22;13497;48.322;16.204;2023-04-15T05:31:30;4.80;99.90
25640;DHT22;13497;48.322;16.204;2023-04-15T05:33:56;4.80;99.90
25640;DHT22;13497;48.322;16.204;2023-04-15T05:36:22;4.80;99.90
25640;DHT22;13497;48.322;16.204;2023-04-15T05:38:47;4.70;99.90
25640;DHT22;13497;48.322;16.204;2023-04-15T05:41:13;4.70;99.90
25640;DHT22;13497;48.322;16.204;2023-04-15T05:43:40;4.70;99.90
25640;DHT22;13497;48.322;16.204;2023-04-15T05:46:06;4.70;99.90
25640;DHT22;13497;48.322;16.204;2023-04-15T05:48:32;4.70;99.90
25640;DHT22;13497;48.322;16.204;2023-04-15T05:50:58;4.60;99.90
25640;DHT22;13497;48.322;16.204;2023-04-15T05:53:24;4.80;99.90
25640;DHT22;13497;48.322;16.204;2023-04-15T05:55:50;4.90;99.90
25640;DHT22;13497;48.322;16.204;2023-04-15T05:58:16;5.10;99.90
25640;DHT22;13497;48.322;16.204;2023-04-15T06:00:41;5.30;99.90
25640;DHT22;13497;48.322;16.204;2023-04-15T06:03:08;5.40;99.90
25640;DHT22;13497;48.322;16.204;2023-04-15T06:05:33;5.50;99.90
25640;DHT22;13497;48.322;16.204;2023-04-15T06:07:59;5.60;99.90
25640;DHT22;13497;48.322;16.204;2023-04-15T06:10:25;5.70;99.90
25640;DHT22;13497;48.322;16.204;2023-04-15T06:12:52;5.70;99.90
25640;DHT22;13497;48.322;16.204;2023-04-15T06:15:17;5.70;99.90
25640;DHT22;13497;48.322;16.204;2023-04-15T06:17:44;5.70;99.90
25640;DHT22;13497;48.322;16.204;2023-04-15T06:20:10;5.70;99.90
25640;DHT22;13497;48.322;16.204;2023-04-15T06:22:36;5.70;99.90
25640;DHT22;13497;48.322;16.204;2023-04-15T06:25:04;5.70;99.90
25640;DHT22;13497;48.322;16.204;2023-04-15T06:27:29;5.80;99.90
25640;DHT22;13497;48.322;16.204;2023-04-15T06:29:55;5.90;99.90
25640;DHT22;13497;48.322;16.204;2023-04-15T06:32:21;5.90;99.90
25640;DHT22;13497;48.322;16.204;2023-04-15T06:34:46;5.90;99.90
25640;DHT22;13497;48.322;16.204;2023-04-15T06:37:12;5.90;99.90
25640;DHT22;13497;48.322;16.204;2023-04-15T06:39:41;5.90;99.90
25640;DHT22;13497;48.322;16.204;2023-04-15T06:42:07;5.90;99.90
25640;DHT22;13497;48.322;16.204;2023-04-15T06:44:33;6.00;99.90
25640;DHT22;13497;48.322;16.204;2023-04-15T06:46:59;5.90;99.90
25640;DHT22;13497;48.322;16.204;2023-04-15T06:49:25;6.10;99.90
25640;DHT22;13497;48.322;16.204;2023-04-15T06:51:51;6.20;99.90
25640;DHT22;13497;48.322;16.204;2023-04-15T06:54:17;6.30;99.90
25640;DHT22;13497;48.322;16.204;2023-04-15T06:56:43;6.40;99.90
25640;DHT22;13497;48.322;16.204;2023-04-15T06:59:08;6.50;99.90
25640;DHT22;13497;48.322;16.204;2023-04-15T07:01:34;6.40;99.90
25640;DHT22;13497;48.322;16.204;2023-04-15T07:04:00;6.50;99.90
25640;DHT22;13497;48.322;16.204;2023-04-15T07:06:26;6.50;99.90
25640;DHT22;13497;48.322;16.204;2023-04-15T07:08:52;6.70;99.90
25640;DHT22;13497;48.322;16.204;2023-04-15T07:11:19;7.00;99.90
25640;DHT22;13497;48.322;16.204;2023-04-15T07:13:45;7.00;99.90
25640;DHT22;13497;48.322;16.204;2023-04-15T07:16:11;6.80;99.90
25640;DHT22;13497;48.322;16.204;2023-04-15T07:18:37;6.90;99.90
25640;DHT22;13497;48.322;16.204;2023-04-15T07:21:03;7.10;99.90
25640;DHT22;13497;48.322;16.204;2023-04-15T07:23:29;7.50;99.90
25640;DHT22;13497;48.322;16.204;2023-04-15T07:25:54;7.90;99.90
25640;DHT22;13497;48.322;16.204;2023-04-15T07:28:21;8.30;99.90
25640;DHT22;13497;48.322;16.204;2023-04-15T07:30:47;8.50;99.90
25640;DHT22;13497;48.322;16.204;2023-04-15T07:33:13;8.40;99.90
25640;DHT22;13497;48.322;16.204;2023-04-15T07:35:39;8.40;99.90
25640;DHT22;13497;48.322;16.204;2023-04-15T07:38:04;8.50;99.90
25640;DHT22;13497;48.322;16.204;2023-04-15T07:40:30;8.50;99.90
25640;DHT22;13497;48.322;16.204;2023-04-15T07:42:56;8.40;99.90
25640;DHT22;13497;48.322;16.204;2023-04-15T07:45:23;8.40;99.90
25640;DHT22;13497;48.322;16.204;2023-04-15T07:47:49;8.30;99.90
25640;DHT22;13497;48.322;16.204;2023-04-15T07:50:15;8.50;99.90
25640;DHT22;13497;48.322;16.204;2023-04-15T07:52:42;8.70;99.90
25640;DHT22;13497;48.322;16.204;2023-04-15T07:55:08;9.00;99.90
25640;DHT22;13497;48.322;16.204;2023-04-15T07:57:35;9.20;99.90
25640;DHT22;13497;48.322;16.204;2023-04-15T08:00:01;9.00;99.90
25640;DHT22;13497;48.322;16.204;2023-04-15T08:02:28;9.10;99.90
25640;DHT22;13497;48.322;16.204;2023-04-15T08:04:54;9.00;99.90
25640;DHT22;13497;48.322;16.204;2023-04-15T08:07:19;9.20;99.90
25640;DHT22;13497;48.322;16.204;2023-04-15T08:09:45;9.10;99.90
25640;DHT22;13497;48.322;16.204;2023-04-15T08:12:11;9.10;99.90
25640;DHT22;13497;48.322;16.204;2023-04-15T08:14:38;9.10;99.90
25640;DHT22;13497;48.322;16.204;2023-04-15T08:17:04;9.00;99.90
25640;DHT22;13497;48.322;16.204;2023-04-15T08:19:30;9.00;99.90
25640;DHT22;13497;48.322;16.204;2023-04-15T08:21:56;9.00;99.90
25640;DHT22;13497;48.322;16.204;2023-04-15T08:24:23;9.40;99.90
25640;DHT22;13497;48.322;16.204;2023-04-15T08:26:51;9.60;99.90
25640;DHT22;13497;48.322;16.204;2023-04-15T08:29:16;9.80;99.90
25640;DHT22;13497;48.322;16.204;2023-04-15T08:31:42;10.00;99.90
25640;DHT22;13497;48.322;16.204;2023-04-15T08:34:10;10.00;99.90
25640;DHT22;13497;48.322;16.204;2023-04-15T08:36:36;10.00;99.90
25640;DHT22;13497;48.322;16.204;2023-04-15T08:39:02;10.20;99.90
25640;DHT22;13497;48.322;16.204;2023-04-15T08:41:39;10.10;99.90
25640;DHT22;13497;48.322;16.204;2023-04-15T08:44:05;10.00;99.90
25640;DHT22;13497;48.322;16.204;2023-04-15T08:46:32;10.30;99.90
25640;DHT22;13497;48.322;16.204;2023-04-15T08:48:59;10.50;99.90
25640;DHT22;13497;48.322;16.204;2023-04-15T08:51:28;10.50;99.90
25640;DHT22;13497;48.322;16.204;2023-04-15T08:53:54;10.10;99.90
25640;DHT22;13497;48.322;16.204;2023-04-15T08:56:23;10.10;99.90
25640;DHT22;13497;48.322;16.204;2023-04-15T08:58:50;10.40;99.90
25640;DHT22;13497;48.322;16.204;2023-04-15T09:01:16;10.60;99.90
25640;DHT22;13497;48.322;16.204;2023-04-15T09:03:43;10.80;99.90
25640;DHT22;13497;48.322;16.204;2023-04-15T09:06:09;10.80;99.90
25640;DHT22;13497;48.322;16.204;2023-04-15T09:08:35;10.60;99.90
25640;DHT22;13497;48.322;16.204;2023-04-15T09:11:01;10.60;99.90
25640;DHT22;13497;48.322;16.204;2023-04-15T09:13:27;10.50;99.90
25640;DHT22;13497;48.322;16.204;2023-04-15T09:15:54;10.50;99.90
25640;DHT22;13497;48.322;16.204;2023-04-15T09:18:29;10.60;99.90
25640;DHT22;13497;48.322;16.204;2023-04-15T09:20:55;10.80;99.90
25640;DHT22;13497;48.322;16.204;2023-04-15T09:23:21;10.70;99.90
25640;DHT22;13497;48.322;16.204;2023-04-15T09:25:47;10.60;99.90
25640;DHT22;13497;48.322;16.204;2023-04-15T09:28:13;10.50;99.90
25640;DHT22;13497;48.322;16.204;2023-04-15T09:30:42;10.20;99.90
25640;DHT22;13497;48.322;16.204;2023-04-15T09:33:13;9.90;99.90
25640;DHT22;13497;48.322;16.204;2023-04-15T09:35:39;9.90;99.90
25640;DHT22;13497;48.322;16.204;2023-04-15T09:38:06;9.90;99.90
25640;DHT22;13497;48.322;16.204;2023-04-15T09:40:41;10.00;99.90
25640;DHT22;13497;48.322;16.204;2023-04-15T09:43:09;9.80;99.90
25640;DHT22;13497;48.322;16.204;2023-04-15T09:45:37;9.50;99.90
25640;DHT22;13497;48.322;16.204;2023-04-15T09:48:22;9.50;99.90
25640;DHT22;13497;48.322;16.204;2023-04-15T09:50:49;9.60;99.90
25640;DHT22;13497;48.322;16.204;2023-04-15T09:53:19;9.70;99.90
25640;DHT22;13497;48.322;16.204;2023-04-15T09:55:55;9.70;99.90
25640;DHT22;13497;48.322;16.204;2023-04-15T09:58:22;9.70;99.90
25640;DHT22;13497;48.322;16.204;2023-04-15T10:00:50;9.50;99.90
25640;DHT22;13497;48.322;16.204;2023-04-15T10:03:20;9.50;99.90
25640;DHT22;13497;48.322;16.204;2023-04-15T10:05:51;9.40;99.90
25640;DHT22;13497;48.322;16.204;2023-04-15T10:08:25;9.20;99.90
25640;DHT22;13497;48.322;16.204;2023-04-15T10:10:51;9.20;99.90
25640;DHT22;13497;48.322;16.204;2023-04-15T10:13:20;9.00;99.90
25640;DHT22;13497;48.322;16.204;2023-04-15T10:15:59;9.10;99.90
25640;DHT22;13497;48.322;16.204;2023-04-15T10:18:26;9.20;99.90
25640;DHT22;13497;48.322;16.204;2023-04-15T10:20:52;9.10;99.90
25640;DHT22;13497;48.322;16.204;2023-04-15T10:23:21;9.20;99.90
25640;DHT22;13497;48.322;16.204;2023-04-15T10:25:48;9.30;99.90
25640;DHT22;13497;48.322;16.204;2023-04-15T10:28:16;9.50;99.90
25640;DHT22;13497;48.322;16.204;2023-04-15T10:30:42;9.60;99.90
25640;DHT22;13497;48.322;16.204;2023-04-15T10:33:09;9.50;99.90
25640;DHT22;13497;48.322;16.204;2023-04-15T10:35:35;9.30;99.90
25640;DHT22;13497;48.322;16.204;2023-04-15T10:38:02;9.20;99.90
25640;DHT22;13497;48.322;16.204;2023-04-15T10:40:49;9.40;99.90
25640;DHT22;13497;48.322;16.204;2023-04-15T10:43:24;9.50;99.90
25640;DHT22;13497;48.322;16.204;2023-04-15T10:45:53;9.60;99.90
25640;DHT22;13497;48.322;16.204;2023-04-15T10:48:18;9.70;99.90
25640;DHT22;13497;48.322;16.204;2023-04-15T10:50:55;9.80;99.90
25640;DHT22;13497;48.322;16.204;2023-04-15T10:53:27;9.80;99.90
25640;DHT22;13497;48.322;16.204;2023-04-15T10:55:54;9.60;99.90
25640;DHT22;13497;48.322;16.204;2023-04-15T10:58:23;9.60;99.90
25640;DHT22;13497;48.322;16.204;2023-04-15T11:00:51;9.50;99.90
25640;DHT22;13497;48.322;16.204;2023-04-15T11:03:36;9.50;99.90
25640;DHT22;13497;48.322;16.204;2023-04-15T11:06:03;9.30;99.90
25640;DHT22;13497;48.322;16.204;2023-04-15T11:08:53;9.20;99.90
25640;DHT22;13497;48.322;16.204;2023-04-15T11:11:20;9.50;99.90
25640;DHT22;13497;48.322;16.204;2023-04-15T11:13:50;9.60;99.90
25640;DHT22;13497;48.322;16.204;2023-04-15T11:16:17;9.50;99.90
25640;DHT22;13497;48.322;16.204;2023-04-15T11:18:53;9.50;99.90
25640;DHT22;13497;48.322;16.204;2023-04-15T11:21:23;9.20;99.90
25640;DHT22;13497;48.322;16.204;2023-04-15T11:23:49;9.10;99.90
25640;DHT22;13497;48.322;16.204;2023-04-15T11:26:15;9.10;99.90
25640;DHT22;13497;48.322;16.204;2023-04-15T11:28:43;9.00;99.90
25640;DHT22;13497;48.322;16.204;2023-04-15T11:31:16;9.00;99.90
25640;DHT22;13497;48.322;16.204;2023-04-15T11:34:08;8.90;99.90
25640;DHT22;13497;48.322;16.204;2023-04-15T11:36:34;8.90;99.90
25640;DHT22;13497;48.322;16.204;2023-04-15T11:39:00;8.80;99.90
25640;DHT22;13497;48.322;16.204;2023-04-15T11:41:25;8.70;99.90
25640;DHT22;13497;48.322;16.204;2023-04-15T11:43:51;8.90;99.90
25640;DHT22;13497;48.322;16.204;2023-04-15T11:46:17;9.00;99.90
25640;DHT22;13497;48.322;16.204;2023-04-15T11:48:45;9.20;99.90
25640;DHT22;13497;48.322;16.204;2023-04-15T11:51:11;9.30;99.90
25640;DHT22;13497;48.322;16.204;2023-04-15T11:56:04;9.40;99.90
25640;DHT22;13497;48.322;16.204;2023-04-15T11:58:30;9.30;99.90
25640;DHT22;13497;48.322;16.204;2023-04-15T12:00:59;9.30;99.90
25640;DHT22;13497;48.322;16.204;2023-04-15T12:03:31;9.30;99.90
25640;DHT22;13497;48.322;16.204;2023-04-15T12:06:22;9.20;99.90
25640;DHT22;13497;48.322;16.204;2023-04-15T12:11:26;9.30;99.90
25640;DHT22;13497;48.322;16.204;2023-04-15T12:13:57;9.50;99.90
25640;DHT22;13497;48.322;16.204;2023-04-15T12:16:24;9.50;99.90
25640;DHT22;13497;48.322;16.204;2023-04-15T12:18:55;9.60;99.90
25640;DHT22;13497;48.322;16.204;2023-04-15T12:21:22;9.70;99.90
25640;DHT22;13497;48.322;16.204;2023-04-15T12:23:53;9.70;99.90
25640;DHT22;13497;48.322;16.204;2023-04-15T12:26:34;9.50;99.90
25640;DHT22;13497;48.322;16.204;2023-04-15T12:29:01;9.60;99.90
25640;DHT22;13497;48.322;16.204;2023-04-15T12:31:27;9.40;99.90
25640;DHT22;13497;48.322;16.204;2023-04-15T12:33:57;9.40;99.90
25640;DHT22;13497;48.322;16.204;2023-04-15T12:36:23;9.30;99.90
25640;DHT22;13497;48.322;16.204;2023-04-15T12:38:49;9.10;99.90
25640;DHT22;13497;48.322;16.204;2023-04-15T12:41:15;8.90;99.90
25640;DHT22;13497;48.322;16.204;2023-04-15T12:43:42;8.90;99.90
25640;DHT22;13497;48.322;16.204;2023-04-15T12:46:08;8.90;99.90
25640;DHT22;13497;48.322;16.204;2023-04-15T12:48:34;8.90;99.90
25640;DHT22;13497;48.322;16.204;2023-04-15T12:51:00;8.90;99.90
25640;DHT22;13497;48.322;16.204;2023-04-15T12:53:26;8.80;99.90
25640;DHT22;13497;48.322;16.204;2023-04-15T12:55:52;8.70;99.90
25640;DHT22;13497;48.322;16.204;2023-04-15T12:58:18;8.70;99.90
25640;DHT22;13497;48.322;16.204;2023-04-15T13:00:44;8.80;99.90
25640;DHT22;13497;48.322;16.204;2023-04-15T13:03:09;8.90;99.90
25640;DHT22;13497;48.322;16.204;2023-04-15T13:05:37;9.10;99.90
25640;DHT22;13497;48.322;16.204;2023-04-15T13:08:04;9.20;99.90
25640;DHT22;13497;48.322;16.204;2023-04-15T13:10:30;9.40;99.90
25640;DHT22;13497;48.322;16.204;2023-04-15T13:12:56;9.40;99.90
25640;DHT22;13497;48.322;16.204;2023-04-15T13:15:22;9.40;99.90
25640;DHT22;13497;48.322;16.204;2023-04-15T13:17:48;9.40;99.90
25640;DHT22;13497;48.322;16.204;2023-04-15T13:20:14;9.50;99.90
25640;DHT22;13497;48.322;16.204;2023-04-15T13:22:40;9.50;99.90
25640;DHT22;13497;48.322;16.204;2023-04-15T13:25:07;9.60;99.90
25640;DHT22;13497;48.322;16.204;2023-04-15T13:27:33;9.50;99.90
25640;DHT22;13497;48.322;16.204;2023-04-15T13:29:59;9.40;99.90
25640;DHT22;13497;48.322;16.204;2023-04-15T13:32:25;9.30;99.90
25640;DHT22;13497;48.322;16.204;2023-04-15T13:34:51;9.40;99.90
25640;DHT22;13497;48.322;16.204;2023-04-15T13:37:16;9.30;99.90
25640;DHT22;13497;48.322;16.204;2023-04-15T13:39:42;9.30;99.90
25640;DHT22;13497;48.322;16.204;2023-04-15T13:42:08;9.40;99.90
25640;DHT22;13497;48.322;16.204;2023-04-15T13:44:34;9.40;99.90
25640;DHT22;13497;48.322;16.204;2023-04-15T13:47:00;9.40;99.90
25640;DHT22;13497;48.322;16.204;2023-04-15T13:49:25;9.50;99.90
25640;DHT22;13497;48.322;16.204;2023-04-15T13:51:51;9.60;99.90
25640;DHT22;13497;48.322;16.204;2023-04-15T13:54:17;9.70;99.90
25640;DHT22;13497;48.322;16.204;2023-04-15T13:56:42;9.70;99.90
25640;DHT22;13497;48.322;16.204;2023-04-15T13:59:08;9.50;99.90
25640;DHT22;13497;48.322;16.204;2023-04-15T14:01:34;9.20;99.90
25640;DHT22;13497;48.322;16.204;2023-04-15T14:04:00;9.10;99.90
25640;DHT22;13497;48.322;16.204;2023-04-15T14:06:27;9.10;99.90
25640;DHT22;13497;48.322;16.204;2023-04-15T14:08:54;9.20;99.90
25640;DHT22;13497;48.322;16.204;2023-04-15T14:11:19;9.20;99.90
25640;DHT22;13497;48.322;16.204;2023-04-15T14:13:45;9.20;99.90
25640;DHT22;13497;48.322;16.204;2023-04-15T14:16:11;9.10;99.90
25640;DHT22;13497;48.322;16.204;2023-04-15T14:18:37;9.20;99.90
25640;DHT22;13497;48.322;16.204;2023-04-15T14:21:03;9.30;99.90
25640;DHT22;13497;48.322;16.204;2023-04-15T14:23:29;9.40;99.90
25640;DHT22;13497;48.322;16.204;2023-04-15T14:25:55;9.50;99.90
25640;DHT22;13497;48.322;16.204;2023-04-15T14:28:21;9.60;99.90
25640;DHT22;13497;48.322;16.204;2023-04-15T14:30:46;9.60;99.90
25640;DHT22;13497;48.322;16.204;2023-04-15T14:33:12;9.60;99.90
25640;DHT22;13497;48.322;16.204;2023-04-15T14:35:38;9.60;99.90
25640;DHT22;13497;48.322;16.204;2023-04-15T14:38:03;9.60;99.90
25640;DHT22;13497;48.322;16.204;2023-04-15T14:40:31;9.80;99.90
25640;DHT22;13497;48.322;16.204;2023-04-15T14:42:57;9.80;99.90
25640;DHT22;13497;48.322;16.204;2023-04-15T14:45:23;9.90;99.90
25640;DHT22;13497;48.322;16.204;2023-04-15T14:47:49;9.70;99.90
25640;DHT22;13497;48.322;16.204;2023-04-15T14:50:14;9.70;99.90
25640;DHT22;13497;48.322;16.204;2023-04-15T14:52:40;9.70;99.90
25640;DHT22;13497;48.322;16.204;2023-04-15T14:55:10;9.70;99.90
25640;DHT22;13497;48.322;16.204;2023-04-15T14:57:37;9.70;99.90
25640;DHT22;13497;48.322;16.204;2023-04-15T15:00:03;9.70;99.90
25640;DHT22;13497;48.322;16.204;2023-04-15T15:02:29;9.60;99.90
25640;DHT22;13497;48.322;16.204;2023-04-15T15:04:56;9.70;99.90
25640;DHT22;13497;48.322;16.204;2023-04-15T15:07:22;9.80;99.90
25640;DHT22;13497;48.322;16.204;2023-04-15T15:09:48;9.80;99.90
25640;DHT22;13497;48.322;16.204;2023-04-15T15:12:14;9.90;99.90
25640;DHT22;13497;48.322;16.204;2023-04-15T15:14:40;9.90;99.90
25640;DHT22;13497;48.322;16.204;2023-04-15T15:17:05;9.90;99.90
25640;DHT22;13497;48.322;16.204;2023-04-15T15:19:31;9.90;99.90
25640;DHT22;13497;48.322;16.204;2023-04-15T15:21:57;9.90;99.90
25640;DHT22;13497;48.322;16.204;2023-04-15T15:24:22;9.80;99.90
25640;DHT22;13497;48.322;16.204;2023-04-15T15:26:48;10.00;99.90
25640;DHT22;13497;48.322;16.204;2023-04-15T15:29:14;10.10;99.90
25640;DHT22;13497;48.322;16.204;2023-04-15T15:31:39;10.10;99.90
25640;DHT22;13497;48.322;16.204;2023-04-15T15:34:05;10.10;99.90